createdAt,value
2023-04-26T00:02:18.509Z,56.38
2023-04-26T00:04:59.085Z,56.46
2023-04-26T00:07:31.565Z,56.35
2023-04-26T00:10:00.914Z,56.44
2023-04-26T00:12:30.200Z,56.42
2023-04-26T00:14:59.671Z,56.52
2023-04-26T00:17:28.814Z,56.60
2023-04-26T00:19:57.998Z,56.82
2023-04-26T00:22:28.278Z,56.77
2023-04-26T00:24:57.486Z,56.82
2023-04-26T00:27:26.677Z,56.92
2023-04-26T00:29:55.957Z,56.97
2023-04-26T00:32:25.186Z,56.91
2023-04-26T00:34:54.282Z,56.89
2023-04-26T00:37:23.724Z,56.92
2023-04-26T00:39:53.045Z,57.12
2023-04-26T00:42:22.210Z,57.00
2023-04-26T00:44:55.339Z,57.07
2023-04-26T00:47:31.135Z,56.99
2023-04-26T00:50:04.789Z,57.14
2023-04-26T00:52:34.115Z,57.29
2023-04-26T00:55:03.702Z,57.20
2023-04-26T00:57:32.976Z,57.28
2023-04-26T01:00:02.129Z,57.43
2023-04-26T01:02:31.452Z,57.38
2023-04-26T01:05:00.975Z,57.43
2023-04-26T01:07:31.151Z,57.55
2023-04-26T01:10:00.621Z,57.56
2023-04-26T01:12:32.422Z,57.62
2023-04-26T01:15:02.322Z,57.74
2023-04-26T01:17:31.754Z,57.98
2023-04-26T01:20:01.101Z,58.01
2023-04-26T01:22:34.922Z,58.09
2023-04-26T01:25:07.974Z,58.10
2023-04-26T01:27:37.069Z,58.11
2023-04-26T01:30:07.359Z,58.20
2023-04-26T01:32:36.996Z,58.27
2023-04-26T01:35:07.580Z,58.41
2023-04-26T01:37:36.766Z,58.47
2023-04-26T01:40:09.953Z,58.58
2023-04-26T01:42:40.991Z,58.65
2023-04-26T01:45:10.821Z,58.77
2023-04-26T01:47:58.611Z,58.89
2023-04-26T01:50:27.926Z,58.84
2023-04-26T01:52:56.997Z,59.01
2023-04-26T01:55:26.306Z,59.15
2023-04-26T01:57:55.550Z,59.00
2023-04-26T02:00:24.679Z,59.23
2023-04-26T02:02:57.628Z,59.27
2023-04-26T02:05:26.983Z,59.13
2023-04-26T02:07:56.683Z,59.26
2023-04-26T02:10:25.943Z,59.30
2023-04-26T02:12:55.185Z,59.22
2023-04-26T02:15:24.523Z,59.44
2023-04-26T02:17:55.811Z,59.73
2023-04-26T02:20:25.235Z,59.76
2023-04-26T02:22:55.188Z,59.66
2023-04-26T02:25:25.019Z,59.65
2023-04-26T02:27:55.980Z,59.68
2023-04-26T02:30:25.075Z,59.74
2023-04-26T02:32:55.859Z,59.78
2023-04-26T02:35:25.522Z,59.97
2023-04-26T02:37:54.913Z,59.95
2023-04-26T02:40:24.277Z,60.00
2023-04-26T02:42:53.406Z,60.03
2023-04-26T02:45:22.753Z,60.17
2023-04-26T02:47:51.943Z,60.11
2023-04-26T02:50:21.294Z,60.27
2023-04-26T02:52:50.972Z,60.06
2023-04-26T02:55:20.373Z,60.09
2023-04-26T02:57:49.677Z,60.16
2023-04-26T03:00:24.780Z,60.16
2023-04-26T03:02:54.111Z,60.10
2023-04-26T03:05:23.890Z,60.12
2023-04-26T03:07:53.126Z,60.19
2023-04-26T03:10:22.317Z,60.17
2023-04-26T03:12:51.669Z,60.39
2023-04-26T03:15:20.871Z,60.30
2023-04-26T03:17:50.135Z,60.47
2023-04-26T03:20:21.063Z,60.60
2023-04-26T03:22:50.364Z,60.51
2023-04-26T03:25:20.110Z,60.42
2023-04-26T03:27:49.292Z,60.59
2023-04-26T03:30:18.757Z,60.65
2023-04-26T03:32:48.423Z,60.76
2023-04-26T03:35:17.830Z,60.59
2023-04-26T03:37:47.078Z,60.74
2023-04-26T03:40:17.174Z,60.66
2023-04-26T03:42:47.722Z,60.73
2023-04-26T03:45:17.849Z,60.78
2023-04-26T03:47:47.786Z,60.83
2023-04-26T03:50:17.357Z,60.79
2023-04-26T03:52:48.574Z,60.92
2023-04-26T03:55:20.013Z,60.96
2023-04-26T03:57:50.940Z,61.09
2023-04-26T04:00:20.851Z,61.03
2023-04-26T04:02:50.482Z,61.27
2023-04-26T04:05:26.244Z,61.48
2023-04-26T04:07:56.691Z,61.81
2023-04-26T04:10:26.248Z,62.02
2023-04-26T04:12:56.516Z,62.08
2023-04-26T04:15:26.980Z,61.84
2023-04-26T04:17:56.951Z,61.56
2023-04-26T04:20:26.355Z,61.03
2023-04-26T04:22:58.835Z,60.87
2023-04-26T04:25:28.292Z,60.83
2023-04-26T04:31:56.797Z,60.22
2023-04-26T04:34:26.391Z,59.85
2023-04-26T04:36:56.530Z,59.59
2023-04-26T04:39:25.795Z,59.26
2023-04-26T04:41:54.980Z,59.04
2023-04-26T04:44:27.174Z,58.50
2023-04-26T04:46:58.491Z,58.34
2023-04-26T04:49:27.652Z,58.15
2023-04-26T04:51:57.625Z,57.99
2023-04-26T04:54:27.310Z,57.98
2023-04-26T04:56:58.800Z,57.68
2023-04-26T04:59:28.476Z,57.38
2023-04-26T05:01:58.612Z,57.44
2023-04-26T05:04:28.574Z,56.77
2023-04-26T05:06:58.357Z,56.59
2023-04-26T05:09:27.730Z,56.13
2023-04-26T05:11:57.241Z,56.09
2023-04-26T05:14:27.700Z,56.22
2023-04-26T05:16:57.619Z,55.74
2023-04-26T05:19:27.639Z,55.37
2023-04-26T05:21:59.780Z,55.79
2023-04-26T05:24:31.638Z,55.58
2023-04-26T05:27:01.317Z,55.30
2023-04-26T05:29:50.636Z,55.41
2023-04-26T05:32:57.904Z,55.09
2023-04-26T05:35:38.847Z,54.81
2023-04-26T05:38:08.020Z,54.55
2023-04-26T05:40:38.085Z,54.58
2023-04-26T05:43:09.131Z,54.26
2023-04-26T05:45:40.461Z,54.06
2023-04-26T05:48:09.859Z,54.18
2023-04-26T05:50:40.085Z,53.65
2023-04-26T05:53:09.574Z,53.20
2023-04-26T05:55:39.007Z,52.56
2023-04-26T05:58:10.160Z,51.87
2023-04-26T06:00:41.200Z,51.76
2023-04-26T06:03:11.411Z,51.13
2023-04-26T06:05:41.637Z,49.74
2023-04-26T06:08:11.366Z,49.47
2023-04-26T06:10:40.366Z,49.15
2023-04-26T06:13:09.534Z,48.35
2023-04-26T06:15:39.258Z,47.53
2023-04-26T06:18:08.744Z,47.00
2023-04-26T06:20:37.846Z,46.09
2023-04-26T06:23:08.845Z,45.40
2023-04-26T06:25:40.503Z,44.76
2023-04-26T06:28:10.139Z,45.06
2023-04-26T06:30:39.614Z,44.57
2023-04-26T06:33:09.581Z,43.48
2023-04-26T06:35:42.739Z,43.18
2023-04-26T06:38:15.516Z,42.90
2023-04-26T06:40:45.394Z,43.35
2023-04-26T06:43:14.555Z,44.35
2023-04-26T06:45:54.285Z,43.57
2023-04-26T06:48:23.597Z,43.71
2023-04-26T06:50:52.911Z,44.03
2023-04-26T06:53:23.149Z,42.90
2023-04-26T06:55:54.313Z,42.06
2023-04-26T06:58:23.381Z,42.90
2023-04-26T07:00:52.687Z,42.56
2023-04-26T07:03:22.134Z,42.59
2023-04-26T07:05:51.555Z,42.39
2023-04-26T07:08:20.762Z,41.77
2023-04-26T07:10:50.030Z,41.45
2023-04-26T07:13:19.231Z,41.78
2023-04-26T07:15:48.674Z,41.42
2023-04-26T07:18:18.043Z,41.99
2023-04-26T07:20:47.158Z,42.30
2023-04-26T07:23:16.277Z,41.76
2023-04-26T07:25:45.826Z,40.68
2023-04-26T07:28:15.263Z,39.58
2023-04-26T07:30:44.635Z,40.11
2023-04-26T07:33:14.046Z,39.69
2023-04-26T07:35:44.226Z,39.95
2023-04-26T07:38:20.018Z,40.56
2023-04-26T07:40:49.884Z,41.33
2023-04-26T07:43:20.946Z,39.70
2023-04-26T07:45:50.099Z,39.15
2023-04-26T07:48:19.252Z,39.01
2023-04-26T07:50:48.305Z,38.30
2023-04-26T07:53:17.502Z,39.01
2023-04-26T07:55:46.582Z,39.32
2023-04-26T07:58:15.569Z,37.97
2023-04-26T08:00:44.658Z,38.66
2023-04-26T08:03:19.139Z,38.12
2023-04-26T08:05:48.861Z,36.81
2023-04-26T08:08:18.967Z,36.03
2023-04-26T08:10:48.581Z,34.70
2023-04-26T08:13:17.761Z,34.62
2023-04-26T08:15:47.736Z,35.26
2023-04-26T08:18:16.986Z,35.67
2023-04-26T08:20:46.184Z,36.62
2023-04-26T08:23:15.484Z,35.69
2023-04-26T08:25:47.221Z,35.59
2023-04-26T08:28:16.947Z,36.78
2023-04-26T08:30:46.044Z,37.04
2023-04-26T08:33:15.257Z,35.61
2023-04-26T08:35:44.499Z,35.20
2023-04-26T08:38:14.160Z,35.34
2023-04-26T08:40:47.890Z,35.18
2023-04-26T08:43:19.664Z,35.48
2023-04-26T08:45:49.303Z,35.23
2023-04-26T08:48:19.669Z,35.13
2023-04-26T08:50:52.499Z,34.37
2023-04-26T08:53:21.753Z,33.60
2023-04-26T08:55:51.243Z,32.95
2023-04-26T08:58:21.778Z,32.53
2023-04-26T09:00:51.431Z,33.83
2023-04-26T09:03:26.397Z,34.04
2023-04-26T09:05:55.711Z,32.45
2023-04-26T09:08:25.899Z,32.33
2023-04-26T09:11:00.596Z,32.68
2023-04-26T09:13:36.532Z,32.46
2023-04-26T09:16:17.474Z,32.90
2023-04-26T09:18:57.754Z,33.57
2023-04-26T09:21:30.061Z,33.98
2023-04-26T09:24:06.639Z,33.85
2023-04-26T09:26:37.192Z,34.07
2023-04-26T09:29:18.280Z,34.87
2023-04-26T09:31:51.338Z,35.16
2023-04-26T09:34:22.494Z,34.56
2023-04-26T09:36:57.469Z,35.05
2023-04-26T09:39:36.380Z,34.81
2023-04-26T09:42:11.532Z,33.45
2023-04-26T09:44:42.111Z,31.98
2023-04-26T09:47:15.124Z,31.03
2023-04-26T09:49:52.163Z,31.24
2023-04-26T09:52:30.189Z,32.41
2023-04-26T09:55:00.800Z,32.72
2023-04-26T09:57:33.233Z,32.29
2023-04-26T10:00:11.232Z,32.52
2023-04-26T10:02:56.485Z,32.67
2023-04-26T10:05:31.632Z,33.45
2023-04-26T10:08:08.690Z,32.44
2023-04-26T10:10:45.397Z,31.42
2023-04-26T10:13:20.514Z,30.92
2023-04-26T10:15:51.953Z,29.45
2023-04-26T10:18:26.595Z,27.89
2023-04-26T10:21:07.857Z,26.98
2023-04-26T10:23:39.073Z,27.08
2023-04-26T10:26:53.755Z,28.31
2023-04-26T10:29:55.799Z,28.21
2023-04-26T10:32:33.795Z,28.15
2023-04-26T10:35:18.452Z,27.32
2023-04-26T10:38:00.073Z,27.23
2023-04-26T10:40:46.448Z,27.91
2023-04-26T10:43:17.611Z,29.23
2023-04-26T10:45:55.191Z,30.03
2023-04-26T10:48:37.677Z,30.06
2023-04-26T10:51:13.070Z,30.55
2023-04-26T10:53:46.626Z,31.23
2023-04-26T10:56:42.787Z,31.56
2023-04-26T10:59:43.543Z,32.35
2023-04-26T11:02:49.752Z,32.55
2023-04-26T11:05:42.968Z,32.95
2023-04-26T11:08:33.103Z,33.30
2023-04-26T11:11:03.463Z,32.75
2023-04-26T11:13:44.171Z,32.39
2023-04-26T11:16:20.426Z,32.68
2023-04-26T11:18:55.384Z,33.10
2023-04-26T11:21:29.236Z,33.69
2023-04-26T11:24:02.380Z,34.05
2023-04-26T11:26:38.943Z,34.19
2023-04-26T11:29:21.766Z,33.82
2023-04-26T11:31:59.735Z,33.88
2023-04-26T11:34:39.714Z,34.24
2023-04-26T11:37:12.243Z,34.48
2023-04-26T11:39:46.606Z,34.88
2023-04-26T11:42:28.353Z,34.71
2023-04-26T11:45:02.357Z,34.96
2023-04-26T11:47:33.170Z,35.13
2023-04-26T11:50:04.182Z,35.40
2023-04-26T11:52:34.857Z,35.22
2023-04-26T11:55:10.772Z,34.97
2023-04-26T11:57:41.536Z,34.48
2023-04-26T12:29:36.085Z,31.05
2023-04-26T12:32:05.611Z,32.21
2023-04-26T12:34:34.907Z,32.53
2023-04-26T12:37:04.127Z,32.61
2023-04-26T12:59:45.835Z,29.53
2023-04-26T13:02:15.367Z,29.86
2023-04-26T13:04:44.750Z,30.24
2023-04-26T13:07:14.387Z,30.71
2023-04-26T13:09:43.457Z,31.21
2023-04-26T13:12:12.416Z,31.63
2023-04-26T13:14:41.544Z,31.96
2023-04-26T13:17:11.177Z,32.11
2023-04-26T13:19:40.102Z,31.91
2023-04-26T13:22:12.164Z,31.86
2023-04-26T13:24:41.170Z,32.01
2023-04-26T13:27:10.424Z,32.40
2023-04-26T13:29:43.700Z,32.90
2023-04-26T13:32:13.076Z,33.25
2023-04-26T13:34:42.099Z,33.20
2023-04-26T13:37:11.886Z,33.23
2023-04-26T13:39:41.440Z,33.44
2023-04-26T13:42:11.368Z,33.34
2023-04-26T13:44:41.058Z,32.97
2023-04-26T13:47:10.077Z,33.09
2023-04-26T13:49:42.200Z,33.14
2023-04-26T13:52:12.141Z,32.77
2023-04-26T13:54:41.264Z,32.53
2023-04-26T13:57:10.282Z,32.35
2023-04-26T13:59:40.594Z,32.59
2023-04-26T14:02:10.737Z,32.64
2023-04-26T14:04:41.632Z,32.71
2023-04-26T14:07:11.206Z,32.47
2023-04-26T14:09:40.261Z,32.52
2023-04-26T14:12:10.405Z,32.37
2023-04-26T14:14:39.456Z,32.48
2023-04-26T14:17:08.456Z,32.79
2023-04-26T14:19:37.425Z,32.87
2023-04-26T14:22:13.024Z,33.04
2023-04-26T14:24:42.852Z,33.05
2023-04-26T14:27:12.389Z,33.41
2023-04-26T14:29:41.606Z,33.60
2023-04-26T14:32:10.654Z,33.13
2023-04-26T14:34:40.152Z,33.20
2023-04-26T14:37:09.308Z,33.54
2023-04-26T14:39:38.343Z,34.05
2023-04-26T14:42:07.372Z,34.78
2023-04-26T14:44:36.597Z,35.08
2023-04-26T14:47:05.725Z,35.29
2023-04-26T14:49:34.627Z,35.19
2023-04-26T14:52:07.248Z,35.08
2023-04-26T14:54:41.871Z,35.22
2023-04-26T14:57:11.472Z,35.30
2023-04-26T14:59:40.804Z,35.23
2023-04-26T15:02:10.066Z,35.49
2023-04-26T15:04:39.303Z,35.78
2023-04-26T15:07:15.307Z,35.82
2023-04-26T15:09:55.721Z,35.45
2023-04-26T15:12:28.343Z,35.34
2023-04-26T15:14:57.674Z,35.42
2023-04-26T15:17:27.378Z,35.48
2023-04-26T15:19:56.634Z,35.60
2023-04-26T15:22:28.552Z,35.53
2023-04-26T15:24:57.531Z,35.57
2023-04-26T15:27:27.041Z,35.61
2023-04-26T15:29:56.848Z,35.62
2023-04-26T15:32:26.857Z,35.66
2023-04-26T15:34:56.062Z,35.74
2023-04-26T15:37:25.205Z,35.86
2023-04-26T15:39:54.626Z,36.18
2023-04-26T15:42:24.235Z,36.36
2023-04-26T15:44:53.662Z,36.48
2023-04-26T15:47:22.936Z,36.73
2023-04-26T15:49:52.099Z,36.84
2023-04-26T15:52:22.390Z,37.09
2023-04-26T15:54:53.493Z,37.32
2023-04-26T15:57:31.439Z,37.07
2023-04-26T16:00:01.863Z,37.00
2023-04-26T16:02:33.894Z,37.09
2023-04-26T16:05:04.669Z,36.73
2023-04-26T16:07:34.257Z,36.50
2023-04-26T16:10:03.982Z,36.37
2023-04-26T16:12:33.100Z,36.11
2023-04-26T16:15:03.196Z,36.06
2023-04-26T16:17:33.544Z,36.22
2023-04-26T16:20:06.963Z,36.16
2023-04-26T16:22:36.827Z,36.33
2023-04-26T16:25:07.115Z,36.43
2023-04-26T16:27:37.104Z,36.48
2023-04-26T16:30:07.464Z,36.71
2023-04-26T16:32:37.520Z,37.12
2023-04-26T16:35:21.066Z,37.20
2023-04-26T16:37:50.661Z,37.32
2023-04-26T16:40:19.653Z,37.72
2023-04-26T16:42:48.726Z,37.75
2023-04-26T16:45:25.601Z,37.90
2023-04-26T16:47:55.796Z,37.91
2023-04-26T16:50:25.373Z,37.90
2023-04-26T16:52:55.296Z,37.90
2023-04-26T16:55:25.022Z,38.03
2023-04-26T16:57:57.933Z,38.18
2023-04-26T17:00:27.651Z,38.10
2023-04-26T17:02:57.285Z,38.03
2023-04-26T17:05:27.139Z,38.29
2023-04-26T17:07:56.925Z,38.09
2023-04-26T17:10:27.252Z,37.83
2023-04-26T17:12:56.249Z,37.65
2023-04-26T17:15:25.971Z,37.66
2023-04-26T17:17:55.251Z,37.67
2023-04-26T17:20:24.322Z,37.69
2023-04-26T17:22:53.820Z,37.76
2023-04-26T17:25:23.714Z,37.86
2023-04-26T17:27:53.314Z,37.94
2023-04-26T17:30:22.983Z,38.00
2023-04-26T17:32:53.799Z,38.08
2023-04-26T17:35:23.309Z,38.20
2023-04-26T17:37:52.507Z,38.41
2023-04-26T17:40:21.866Z,38.72
2023-04-26T17:42:51.047Z,38.77
2023-04-26T17:45:22.269Z,38.90
2023-04-26T17:47:55.656Z,39.02
2023-04-26T17:50:25.223Z,39.23
2023-04-26T17:52:55.472Z,39.36
2023-04-26T17:55:42.832Z,39.50
2023-04-26T17:58:39.789Z,39.66
2023-04-26T18:01:23.427Z,39.90
2023-04-26T18:04:46.637Z,40.11
2023-04-26T18:08:42.725Z,40.29
2023-04-26T18:11:58.316Z,40.48
2023-04-26T18:15:17.542Z,40.74
2023-04-26T18:22:05.086Z,41.06
2023-04-26T18:25:00.695Z,41.21
2023-04-26T18:27:53.697Z,41.28
2023-04-26T18:48:54.713Z,41.70
2023-04-26T18:51:40.651Z,41.78
2023-04-26T18:54:50.394Z,41.87
2023-04-26T18:58:03.985Z,42.02
2023-04-26T19:00:51.018Z,42.10
2023-04-26T19:03:47.134Z,42.28
2023-04-26T19:07:22.973Z,42.50
2023-04-26T19:10:16.356Z,42.75
2023-04-26T19:13:06.251Z,42.88
2023-04-26T19:15:46.066Z,43.00
2023-04-26T19:19:05.952Z,43.14
2023-04-26T19:37:23.727Z,44.49
2023-04-26T19:40:14.847Z,44.63
2023-04-26T19:43:10.999Z,44.73
2023-04-26T19:46:03.990Z,44.98
2023-04-26T19:48:40.252Z,45.14
2023-04-26T19:51:20.253Z,45.11
2023-04-26T19:53:56.808Z,45.17
2023-04-26T19:56:42.208Z,45.38
2023-04-26T19:59:33.075Z,45.61
2023-04-26T20:02:16.511Z,45.74
2023-04-26T20:04:59.055Z,46.00
2023-04-26T20:07:40.569Z,46.25
2023-04-26T20:10:12.482Z,46.27
2023-04-26T20:12:46.418Z,46.48
2023-04-26T20:15:22.424Z,46.69
2023-04-26T20:18:05.201Z,46.78
2023-04-26T20:20:40.185Z,46.89
2023-04-26T20:23:30.682Z,47.00
2023-04-26T20:26:42.209Z,47.33
2023-04-26T20:29:20.944Z,47.45
2023-04-26T20:32:24.803Z,47.59
2023-04-26T21:13:59.653Z,48.30
2023-04-26T21:16:29.419Z,48.89
2023-04-26T21:19:00.148Z,49.34
2023-04-26T21:21:29.533Z,49.77
2023-04-26T21:24:06.266Z,50.08
2023-04-26T21:26:37.194Z,50.11
2023-04-26T21:29:09.724Z,50.15
2023-04-26T21:31:42.251Z,50.30
2023-04-26T21:34:16.602Z,50.40
2023-04-26T21:36:46.934Z,50.75
2023-04-26T21:39:16.033Z,50.67
2023-04-26T21:41:55.277Z,50.65
2023-04-26T21:44:25.210Z,50.93
2023-04-26T21:46:54.929Z,50.94
2023-04-26T21:49:24.891Z,51.11
2023-04-26T21:51:57.248Z,51.36
2023-04-26T21:54:34.957Z,51.57
2023-04-26T21:57:08.221Z,51.95
2023-04-26T21:59:42.420Z,52.06
2023-04-26T22:02:12.073Z,52.30
2023-04-26T22:04:42.407Z,52.46
2023-04-26T22:07:14.695Z,52.39
2023-04-26T22:09:43.920Z,52.45
2023-04-26T22:12:15.960Z,52.78
2023-04-26T22:14:56.029Z,53.04
2023-04-26T22:17:35.250Z,53.09
2023-04-26T22:20:08.159Z,53.21
2023-04-26T22:22:39.616Z,53.30
2023-04-26T22:25:11.173Z,53.36
2023-04-26T22:27:41.377Z,53.48
2023-04-26T22:30:25.013Z,53.61
2023-04-26T22:33:02.632Z,53.72
2023-04-26T22:35:34.045Z,53.86
2023-04-26T22:38:10.557Z,53.88
2023-04-26T22:40:40.989Z,53.82
2023-04-26T22:43:10.129Z,54.08
2023-04-26T22:45:38.837Z,54.18
2023-04-26T22:48:10.348Z,54.05
2023-04-26T22:50:39.737Z,54.00
2023-04-26T22:53:15.059Z,54.10
2023-04-26T22:55:44.210Z,54.22
2023-04-26T22:58:13.348Z,54.28
2023-04-26T23:00:42.088Z,54.26
2023-04-26T23:03:13.751Z,54.24
2023-04-26T23:05:42.738Z,54.39
2023-04-26T23:08:15.021Z,54.49
2023-04-26T23:10:43.831Z,54.70
2023-04-26T23:13:14.682Z,54.72
2023-04-26T23:15:45.129Z,54.87
2023-04-26T23:18:17.196Z,54.95
2023-04-26T23:20:49.744Z,55.11
2023-04-26T23:23:19.127Z,55.33
2023-04-26T23:25:48.916Z,55.75
2023-04-26T23:28:24.299Z,55.73
2023-04-26T23:30:58.687Z,55.75
2023-04-26T23:33:30.388Z,56.04
2023-04-26T23:36:02.928Z,56.13
2023-04-26T23:38:32.229Z,56.31
2023-04-26T23:41:04.087Z,56.36
2023-04-26T23:43:33.672Z,56.66
2023-04-26T23:46:06.008Z,56.80
2023-04-26T23:48:38.526Z,56.85
2023-04-26T23:51:07.629Z,56.90
2023-04-26T23:53:36.429Z,56.98
2023-04-26T23:56:06.368Z,57.01
2023-04-26T23:58:34.615Z,57.01
